createdAt,value
2023-02-07T00:03:18.058Z,102593.19
2023-02-07T00:08:20.883Z,102590.19
2023-02-07T00:13:23.736Z,102586.42
2023-02-07T00:18:27.075Z,102593.45
2023-02-07T00:23:30.103Z,102594.77
2023-02-07T00:28:33.953Z,102590.52
2023-02-07T00:33:38.895Z,102596.98
2023-02-07T00:38:42.890Z,102598.88
2023-02-07T00:43:47.293Z,102591.06
2023-02-07T00:48:50.969Z,102589.59
2023-02-07T00:53:55.031Z,102594.36
2023-02-07T00:58:57.904Z,102606.65
2023-02-07T01:04:01.258Z,102602.46
2023-02-07T01:09:06.948Z,102598.34
2023-02-07T01:14:09.749Z,102595.27
2023-02-07T01:19:13.977Z,102598.23
2023-02-07T01:24:16.754Z,102589.66
2023-02-07T01:29:19.577Z,102592.33
2023-02-07T01:34:22.366Z,102589.08
2023-02-07T01:39:25.088Z,102584.42
2023-02-07T01:44:27.781Z,102584.15
2023-02-07T01:49:34.188Z,102587.54
2023-02-07T01:54:38.314Z,102587.91
2023-02-07T01:59:44.304Z,102577.73
2023-02-07T02:04:47.162Z,102576.70
2023-02-07T02:09:49.958Z,102568.75
2023-02-07T02:15:06.169Z,102567.33
2023-02-07T02:20:27.541Z,102564.33
2023-02-07T02:25:42.384Z,102557.98
2023-02-07T02:30:54.326Z,102560.97
2023-02-07T02:36:00.036Z,102562.07
2023-02-07T02:41:10.197Z,102565.90
2023-02-07T02:46:27.673Z,102564.74
2023-02-07T02:51:32.239Z,102576.15
2023-02-07T02:57:04.505Z,102580.53
2023-02-07T03:02:51.229Z,102575.67
2023-02-07T03:08:02.917Z,102565.42
2023-02-07T03:13:33.253Z,102567.24
2023-02-07T03:18:51.409Z,102585.98
2023-02-07T03:23:57.892Z,102574.02
2023-02-07T03:29:04.607Z,102552.18
2023-02-07T03:34:19.264Z,102551.73
2023-02-07T03:39:22.574Z,102550.13
2023-02-07T03:44:28.562Z,102547.48
2023-02-07T03:49:31.359Z,102549.48
2023-02-07T03:54:34.231Z,102540.11
2023-02-07T03:59:36.968Z,102543.53
2023-02-07T04:04:39.756Z,102541.14
2023-02-07T04:09:42.562Z,102540.48
2023-02-07T04:14:45.350Z,102543.19
2023-02-07T04:19:48.110Z,102543.52
2023-02-07T04:24:50.836Z,102539.69
2023-02-07T04:29:53.639Z,102540.39
2023-02-07T04:34:56.345Z,102538.96
2023-02-07T04:39:59.094Z,102546.63
2023-02-07T04:45:01.996Z,102556.96
2023-02-07T04:50:04.897Z,102559.55
2023-02-07T04:55:09.348Z,102551.67
2023-02-07T05:00:12.843Z,102549.30
2023-02-07T05:05:15.696Z,102541.91
2023-02-07T05:10:18.547Z,102541.45
2023-02-07T05:15:21.374Z,102544.08
2023-02-07T05:20:25.888Z,102552.58
2023-02-07T05:25:29.022Z,102557.77
2023-02-07T05:30:31.923Z,102559.80
2023-02-07T05:35:40.846Z,102556.39
2023-02-07T05:40:44.635Z,102555.12
2023-02-07T05:45:47.396Z,102550.18
2023-02-07T05:50:50.216Z,102541.55
2023-02-07T05:55:53.014Z,102542.30
2023-02-07T06:00:55.828Z,102551.61
2023-02-07T06:05:58.680Z,102557.86
2023-02-07T06:11:01.417Z,102561.73
2023-02-07T06:16:04.734Z,102563.36
2023-02-07T06:21:07.474Z,102566.16
2023-02-07T06:26:10.282Z,102568.75
2023-02-07T06:31:13.267Z,102574.86
2023-02-07T06:36:16.113Z,102570.03
2023-02-07T06:41:19.184Z,102569.06
2023-02-07T06:46:23.226Z,102577.52
2023-02-07T06:51:26.192Z,102582.80
2023-02-07T06:56:29.068Z,102591.71
2023-02-07T07:01:32.459Z,102600.73
2023-02-07T07:06:36.787Z,102606.67
2023-02-07T07:11:43.372Z,102618.30
2023-02-07T07:16:46.696Z,102623.13
2023-02-07T07:21:50.228Z,102626.17
2023-02-07T07:26:53.828Z,102626.27
2023-02-07T07:31:56.573Z,102626.86
2023-02-07T07:37:00.450Z,102627.80
2023-02-07T07:42:03.699Z,102628.54
2023-02-07T07:47:06.567Z,102630.84
2023-02-07T07:52:11.402Z,102629.75
2023-02-07T07:57:14.884Z,102631.40
2023-02-07T08:02:18.522Z,102623.30
2023-02-07T08:07:26.989Z,102610.30
2023-02-07T08:12:39.535Z,102604.41
2023-02-07T08:17:42.714Z,102612.52
2023-02-07T08:22:45.745Z,102612.08
2023-02-07T08:27:48.658Z,102611.35
2023-02-07T08:32:52.026Z,102613.45
2023-02-07T08:37:55.999Z,102608.71
2023-02-07T08:42:59.669Z,102610.42
2023-02-07T08:48:02.898Z,102602.34
2023-02-07T08:53:06.032Z,102603.50
2023-02-07T08:58:22.689Z,102600.38
2023-02-07T09:03:32.581Z,102592.94
2023-02-07T09:08:35.303Z,102595.55
2023-02-07T09:13:40.794Z,102602.64
2023-02-07T09:18:44.051Z,102609.23
2023-02-07T09:23:47.052Z,102597.79
2023-02-07T09:28:52.175Z,102601.19
2023-02-07T09:34:47.431Z,102598.38
2023-02-07T09:39:59.681Z,102595.02
2023-02-07T09:45:23.043Z,102603.49
2023-02-07T09:55:44.232Z,102599.37
2023-02-07T10:00:59.332Z,102598.12
2023-02-07T10:06:22.524Z,102609.77
2023-02-07T10:11:46.454Z,102613.40
2023-02-07T10:17:31.392Z,102620.53
2023-02-07T10:22:53.554Z,102634.80
2023-02-07T10:28:15.928Z,102632.33
2023-02-07T10:33:24.521Z,102633.86
2023-02-07T10:38:43.445Z,102636.55
2023-02-07T10:43:47.786Z,102641.52
2023-02-07T10:48:52.313Z,102627.52
2023-02-07T10:54:10.575Z,102626.83
2023-02-07T10:59:51.374Z,102636.16
2023-02-07T11:05:00.508Z,102626.13
2023-02-07T11:10:21.882Z,102619.80
2023-02-07T11:15:35.863Z,102605.13
2023-02-07T11:20:49.132Z,102611.45
2023-02-07T11:25:55.628Z,102615.52
2023-02-07T11:31:03.860Z,102615.93
2023-02-07T11:36:46.431Z,102622.77
2023-02-07T11:42:02.884Z,102624.80
2023-02-07T11:47:05.835Z,102624.37
2023-02-07T11:52:11.045Z,102614.35
2023-02-07T11:57:16.625Z,102625.63
2023-02-07T12:02:35.414Z,102621.73
2023-02-07T12:07:45.001Z,102611.84
2023-02-07T12:13:10.385Z,102601.77
2023-02-07T12:18:47.458Z,102602.60
2023-02-07T12:24:24.550Z,102607.49
2023-02-07T12:29:46.098Z,102610.61
2023-02-07T12:35:26.393Z,102613.92
2023-02-07T12:40:51.464Z,102624.42
2023-02-07T12:46:03.603Z,102620.64
2023-02-07T12:51:07.297Z,102619.25
2023-02-07T12:56:26.061Z,102619.30
2023-02-07T13:01:40.266Z,102602.34
2023-02-07T13:07:17.791Z,102596.36
2023-02-07T13:12:53.873Z,102600.96
2023-02-07T13:18:16.639Z,102598.67
2023-02-07T13:23:25.888Z,102598.75
2023-02-07T13:28:40.990Z,102604.17
2023-02-07T13:33:46.244Z,102601.64
2023-02-07T13:39:19.051Z,102602.17
2023-02-07T13:44:54.911Z,102604.80
2023-02-07T13:50:24.237Z,102605.30
2023-02-07T13:55:33.245Z,102609.46
2023-02-07T14:00:48.747Z,102615.52
2023-02-07T14:05:52.558Z,102623.90
2023-02-07T14:10:57.237Z,102617.85
2023-02-07T14:16:34.023Z,102612.42
2023-02-07T14:21:45.586Z,102618.34
2023-02-07T14:26:58.368Z,102619.52
2023-02-07T14:32:16.106Z,102615.98
2023-02-07T14:37:23.291Z,102620.90
2023-02-07T14:42:26.612Z,102628.64
2023-02-07T14:47:31.647Z,102633.88
2023-02-07T14:52:38.909Z,102638.48
2023-02-07T14:58:04.330Z,102643.88
2023-02-07T15:03:13.698Z,102643.10
2023-02-07T15:08:19.560Z,102650.27
2023-02-07T15:13:36.540Z,102655.27
2023-02-07T15:18:41.403Z,102663.23
2023-02-07T15:23:49.166Z,102664.05
2023-02-07T15:29:05.991Z,102667.27
2023-02-07T15:34:15.816Z,102668.54
2023-02-07T15:39:23.881Z,102673.57
2023-02-07T15:44:29.240Z,102677.02
2023-02-07T15:49:36.302Z,102681.16
2023-02-07T15:54:40.907Z,102688.95
2023-02-07T15:59:43.958Z,102693.39
2023-02-07T16:04:46.761Z,102700.08
2023-02-07T16:09:50.217Z,102710.52
2023-02-07T16:14:52.962Z,102712.44
2023-02-07T16:19:55.725Z,102716.85
2023-02-07T16:25:03.813Z,102718.40
2023-02-07T16:30:16.199Z,102717.04
2023-02-07T16:35:26.701Z,102721.45
2023-02-07T16:40:29.801Z,102723.31
2023-02-07T16:45:32.847Z,102723.02
2023-02-07T16:50:35.746Z,102730.81
2023-02-07T16:55:39.333Z,102726.09
2023-02-07T17:00:42.400Z,102728.92
2023-02-07T17:05:45.573Z,102728.65
2023-02-07T17:10:53.416Z,102732.00
2023-02-07T17:15:58.235Z,102730.68
2023-02-07T17:21:01.694Z,102732.48
2023-02-07T17:26:09.329Z,102733.88
2023-02-07T17:31:13.638Z,102731.05
2023-02-07T17:36:16.704Z,102734.70
2023-02-07T17:41:21.489Z,102737.52
2023-02-07T17:46:27.022Z,102742.43
2023-02-07T17:51:29.958Z,102754.45
2023-02-07T17:56:33.818Z,102765.89
2023-02-07T18:01:36.634Z,102768.43
2023-02-07T18:06:39.630Z,102768.23
2023-02-07T18:11:42.370Z,102771.80
2023-02-07T18:16:45.629Z,102772.27
2023-02-07T18:21:49.482Z,102780.60
2023-02-07T18:26:52.782Z,102792.48
2023-02-07T18:31:56.476Z,102799.65
2023-02-07T18:36:59.246Z,102804.74
2023-02-07T18:42:02.066Z,102809.10
2023-02-07T18:47:06.481Z,102808.81
2023-02-07T18:52:09.285Z,102810.81
2023-02-07T18:57:12.601Z,102803.61
2023-02-07T19:02:15.464Z,102797.58
2023-02-07T19:07:19.953Z,102797.96
2023-02-07T19:12:22.953Z,102801.83
2023-02-07T19:17:25.788Z,102804.54
2023-02-07T19:22:35.316Z,102800.93
2023-02-07T19:27:38.719Z,102797.85
2023-02-07T19:32:42.723Z,102800.73
2023-02-07T19:37:45.544Z,102805.38
2023-02-07T19:42:48.531Z,102808.77
2023-02-07T19:47:52.082Z,102812.35
2023-02-07T19:52:55.354Z,102815.81
2023-02-07T19:58:01.859Z,102826.02
2023-02-07T20:03:04.654Z,102830.38
2023-02-07T20:08:07.520Z,102830.23
2023-02-07T20:13:11.817Z,102820.41
2023-02-07T20:18:17.011Z,102826.59
2023-02-07T20:23:21.126Z,102825.48
2023-02-07T20:28:26.408Z,102831.95
2023-02-07T20:33:30.187Z,102833.69
2023-02-07T20:38:33.250Z,102838.48
2023-02-07T20:43:37.186Z,102833.30
2023-02-07T20:48:41.373Z,102833.98
2023-02-07T20:53:44.360Z,102836.60
2023-02-07T20:58:47.266Z,102838.77
2023-02-07T21:03:51.957Z,102845.70
2023-02-07T21:09:01.719Z,102846.98
2023-02-07T21:14:35.255Z,102850.46
2023-02-07T21:19:38.869Z,102864.70
2023-02-07T21:24:43.705Z,102867.27
2023-02-07T21:29:46.643Z,102867.77
2023-02-07T21:34:49.444Z,102869.79
2023-02-07T21:39:52.288Z,102882.40
2023-02-07T21:44:55.126Z,102881.31
2023-02-07T21:49:57.995Z,102890.01
2023-02-07T21:55:00.819Z,102891.36
2023-02-07T22:00:08.162Z,102896.01
2023-02-07T22:05:10.922Z,102901.73
2023-02-07T22:10:13.899Z,102908.02
2023-02-07T22:15:16.768Z,102913.46
2023-02-07T22:20:19.629Z,102913.05
2023-02-07T22:25:22.970Z,102914.38
2023-02-07T22:30:25.918Z,102906.38
2023-02-07T22:35:28.710Z,102911.23
2023-02-07T22:40:34.531Z,102910.96
2023-02-07T22:45:38.576Z,102905.90
2023-02-07T22:50:42.603Z,102917.70
2023-02-07T22:55:45.398Z,102919.97
2023-02-07T23:00:48.254Z,102923.51
2023-02-07T23:05:51.443Z,102921.91
2023-02-07T23:10:54.209Z,102933.24
2023-02-07T23:15:57.058Z,102934.78
2023-02-07T23:21:00.089Z,102932.39
2023-02-07T23:26:06.987Z,102936.46
2023-02-07T23:31:13.028Z,102930.77
2023-02-07T23:36:17.729Z,102930.46
2023-02-07T23:41:20.759Z,102926.16
2023-02-07T23:46:23.719Z,102927.29
2023-02-07T23:51:27.735Z,102934.73
2023-02-07T23:56:30.602Z,102941.75
